sensor_id;sensor_type;location;lat;lon;timestamp;P1;durP1;ratioP1;P2;durP2;ratioP2
19863;SDS011;10094;48.820;9.226;2023-05-15T00:02:47;13.95;;;10.30;;
19863;SDS011;10094;48.820;9.226;2023-05-15T00:09:30;10.85;;;9.48;;
19863;SDS011;10094;48.820;9.226;2023-05-15T00:16:13;13.65;;;10.43;;
19863;SDS011;10094;48.820;9.226;2023-05-15T00:22:55;15.10;;;10.23;;
19863;SDS011;10094;48.820;9.226;2023-05-15T00:29:38;16.80;;;11.32;;
19863;SDS011;10094;48.820;9.226;2023-05-15T00:36:21;13.45;;;10.70;;
19863;SDS011;10094;48.820;9.226;2023-05-15T00:43:05;14.70;;;11.85;;
19863;SDS011;10094;48.820;9.226;2023-05-15T00:49:48;15.20;;;10.55;;
19863;SDS011;10094;48.820;9.226;2023-05-15T00:56:33;11.55;;;10.15;;
19863;SDS011;10094;48.820;9.226;2023-05-15T01:03:16;12.85;;;9.93;;
19863;SDS011;10094;48.820;9.226;2023-05-15T01:09:59;11.73;;;9.90;;
19863;SDS011;10094;48.820;9.226;2023-05-15T01:16:42;10.48;;;9.35;;
19863;SDS011;10094;48.820;9.226;2023-05-15T01:30:45;11.23;;;9.15;;
19863;SDS011;10094;48.820;9.226;2023-05-15T01:37:29;11.15;;;9.50;;
19863;SDS011;10094;48.820;9.226;2023-05-15T01:44:22;10.45;;;9.13;;
19863;SDS011;10094;48.820;9.226;2023-05-15T01:51:15;11.27;;;8.70;;
19863;SDS011;10094;48.820;9.226;2023-05-15T01:57:59;10.25;;;7.88;;
19863;SDS011;10094;48.820;9.226;2023-05-15T02:04:43;10.52;;;8.45;;
19863;SDS011;10094;48.820;9.226;2023-05-15T02:11:26;9.63;;;8.32;;
19863;SDS011;10094;48.820;9.226;2023-05-15T02:18:09;13.43;;;9.13;;
19863;SDS011;10094;48.820;9.226;2023-05-15T02:24:52;13.15;;;8.73;;
19863;SDS011;10094;48.820;9.226;2023-05-15T02:38:22;12.13;;;10.38;;
19863;SDS011;10094;48.820;9.226;2023-05-15T02:45:09;11.02;;;9.57;;
19863;SDS011;10094;48.820;9.226;2023-05-15T02:51:52;12.27;;;9.88;;
19863;SDS011;10094;48.820;9.226;2023-05-15T02:58:35;11.35;;;10.00;;
19863;SDS011;10094;48.820;9.226;2023-05-15T03:05:18;10.98;;;9.40;;
19863;SDS011;10094;48.820;9.226;2023-05-15T03:12:01;14.13;;;10.45;;
19863;SDS011;10094;48.820;9.226;2023-05-15T03:18:43;12.80;;;9.95;;
19863;SDS011;10094;48.820;9.226;2023-05-15T03:25:25;13.95;;;9.85;;
19863;SDS011;10094;48.820;9.226;2023-05-15T03:32:08;12.40;;;10.05;;
19863;SDS011;10094;48.820;9.226;2023-05-15T03:38:51;9.60;;;8.48;;
19863;SDS011;10094;48.820;9.226;2023-05-15T03:45:33;10.15;;;8.48;;
19863;SDS011;10094;48.820;9.226;2023-05-15T03:52:16;11.25;;;8.00;;
19863;SDS011;10094;48.820;9.226;2023-05-15T03:58:59;17.63;;;8.90;;
19863;SDS011;10094;48.820;9.226;2023-05-15T04:05:41;8.10;;;6.60;;
19863;SDS011;10094;48.820;9.226;2023-05-15T04:12:23;8.05;;;6.60;;
19863;SDS011;10094;48.820;9.226;2023-05-15T04:19:09;8.30;;;7.18;;
19863;SDS011;10094;48.820;9.226;2023-05-15T04:25:51;7.45;;;6.50;;
19863;SDS011;10094;48.820;9.226;2023-05-15T04:32:34;8.45;;;7.10;;
19863;SDS011;10094;48.820;9.226;2023-05-15T04:39:17;8.30;;;7.40;;
19863;SDS011;10094;48.820;9.226;2023-05-15T04:45:59;11.13;;;6.50;;
19863;SDS011;10094;48.820;9.226;2023-05-15T04:52:42;6.65;;;6.05;;
19863;SDS011;10094;48.820;9.226;2023-05-15T04:59:24;6.90;;;6.30;;
19863;SDS011;10094;48.820;9.226;2023-05-15T05:06:08;6.53;;;5.85;;
19863;SDS011;10094;48.820;9.226;2023-05-15T05:12:50;7.60;;;5.38;;
19863;SDS011;10094;48.820;9.226;2023-05-15T05:19:33;7.47;;;5.03;;
19863;SDS011;10094;48.820;9.226;2023-05-15T05:26:16;5.75;;;5.18;;
19863;SDS011;10094;48.820;9.226;2023-05-15T05:32:58;6.40;;;4.95;;
19863;SDS011;10094;48.820;9.226;2023-05-15T05:39:40;5.25;;;4.85;;
19863;SDS011;10094;48.820;9.226;2023-05-15T05:46:23;6.50;;;4.97;;
19863;SDS011;10094;48.820;9.226;2023-05-15T05:53:05;5.38;;;4.88;;
19863;SDS011;10094;48.820;9.226;2023-05-15T05:59:47;5.50;;;5.00;;
19863;SDS011;10094;48.820;9.226;2023-05-15T06:06:30;5.75;;;5.25;;
19863;SDS011;10094;48.820;9.226;2023-05-15T06:13:12;5.78;;;4.95;;
19863;SDS011;10094;48.820;9.226;2023-05-15T06:19:58;6.00;;;5.28;;
19863;SDS011;10094;48.820;9.226;2023-05-15T06:26:40;5.93;;;5.00;;
19863;SDS011;10094;48.820;9.226;2023-05-15T06:33:22;5.18;;;4.68;;
19863;SDS011;10094;48.820;9.226;2023-05-15T06:40:05;4.65;;;4.25;;
19863;SDS011;10094;48.820;9.226;2023-05-15T06:46:48;4.90;;;4.50;;
19863;SDS011;10094;48.820;9.226;2023-05-15T06:53:30;4.50;;;4.10;;
19863;SDS011;10094;48.820;9.226;2023-05-15T07:00:13;5.93;;;4.43;;
19863;SDS011;10094;48.820;9.226;2023-05-15T07:06:56;6.40;;;4.20;;
19863;SDS011;10094;48.820;9.226;2023-05-15T07:13:38;4.93;;;4.43;;
19863;SDS011;10094;48.820;9.226;2023-05-15T07:20:20;4.35;;;3.95;;
19863;SDS011;10094;48.820;9.226;2023-05-15T07:27:03;5.30;;;4.78;;
19863;SDS011;10094;48.820;9.226;2023-05-15T07:33:46;5.07;;;3.63;;
19863;SDS011;10094;48.820;9.226;2023-05-15T07:40:28;5.63;;;4.53;;
19863;SDS011;10094;48.820;9.226;2023-05-15T07:47:10;4.10;;;3.65;;
19863;SDS011;10094;48.820;9.226;2023-05-15T07:53:53;6.63;;;4.70;;
19863;SDS011;10094;48.820;9.226;2023-05-15T08:00:35;4.22;;;3.83;;
19863;SDS011;10094;48.820;9.226;2023-05-15T08:07:18;4.93;;;3.67;;
19863;SDS011;10094;48.820;9.226;2023-05-15T08:14:01;3.35;;;3.05;;
19863;SDS011;10094;48.820;9.226;2023-05-15T08:20:43;3.97;;;3.60;;
19863;SDS011;10094;48.820;9.226;2023-05-15T08:27:26;4.25;;;3.45;;
19863;SDS011;10094;48.820;9.226;2023-05-15T08:34:09;4.03;;;3.67;;
19863;SDS011;10094;48.820;9.226;2023-05-15T08:40:51;3.17;;;2.90;;
19863;SDS011;10094;48.820;9.226;2023-05-15T08:47:38;2.97;;;2.78;;
19863;SDS011;10094;48.820;9.226;2023-05-15T08:54:22;3.35;;;3.03;;
19863;SDS011;10094;48.820;9.226;2023-05-15T09:01:05;4.00;;;3.33;;
19863;SDS011;10094;48.820;9.226;2023-05-15T09:07:47;3.65;;;3.35;;
19863;SDS011;10094;48.820;9.226;2023-05-15T09:14:31;3.10;;;2.90;;
19863;SDS011;10094;48.820;9.226;2023-05-15T09:21:48;5.10;;;3.08;;
19863;SDS011;10094;48.820;9.226;2023-05-15T09:35:37;3.50;;;3.20;;
19863;SDS011;10094;48.820;9.226;2023-05-15T09:42:18;5.18;;;3.88;;
19863;SDS011;10094;48.820;9.226;2023-05-15T09:49:01;4.00;;;3.60;;
19863;SDS011;10094;48.820;9.226;2023-05-15T09:55:43;3.40;;;3.05;;
19863;SDS011;10094;48.820;9.226;2023-05-15T10:02:26;3.72;;;3.13;;
19863;SDS011;10094;48.820;9.226;2023-05-15T10:09:13;3.47;;;3.17;;
19863;SDS011;10094;48.820;9.226;2023-05-15T10:15:56;3.53;;;3.22;;
19863;SDS011;10094;48.820;9.226;2023-05-15T10:22:40;3.25;;;3.00;;
19863;SDS011;10094;48.820;9.226;2023-05-15T10:29:26;3.30;;;2.95;;
19863;SDS011;10094;48.820;9.226;2023-05-15T10:36:10;3.17;;;2.83;;
19863;SDS011;10094;48.820;9.226;2023-05-15T10:42:53;4.65;;;2.65;;
19863;SDS011;10094;48.820;9.226;2023-05-15T10:49:37;2.38;;;1.90;;
19863;SDS011;10094;48.820;9.226;2023-05-15T10:56:20;3.03;;;2.30;;
19863;SDS011;10094;48.820;9.226;2023-05-15T11:03:07;2.72;;;2.53;;
19863;SDS011;10094;48.820;9.226;2023-05-15T11:09:49;3.67;;;2.70;;
19863;SDS011;10094;48.820;9.226;2023-05-15T11:23:37;2.92;;;2.63;;
19863;SDS011;10094;48.820;9.226;2023-05-15T11:30:21;3.08;;;2.60;;
19863;SDS011;10094;48.820;9.226;2023-05-15T11:37:17;3.40;;;2.72;;
19863;SDS011;10094;48.820;9.226;2023-05-15T11:44:00;3.25;;;2.58;;
19863;SDS011;10094;48.820;9.226;2023-05-15T11:50:42;3.47;;;2.60;;
19863;SDS011;10094;48.820;9.226;2023-05-15T11:57:26;4.03;;;3.03;;
19863;SDS011;10094;48.820;9.226;2023-05-15T12:04:12;4.15;;;2.80;;
19863;SDS011;10094;48.820;9.226;2023-05-15T12:10:56;2.85;;;2.58;;
19863;SDS011;10094;48.820;9.226;2023-05-15T12:17:40;3.00;;;2.70;;
19863;SDS011;10094;48.820;9.226;2023-05-15T12:24:24;3.40;;;2.40;;
19863;SDS011;10094;48.820;9.226;2023-05-15T12:31:08;5.95;;;2.67;;
19863;SDS011;10094;48.820;9.226;2023-05-15T12:37:52;4.20;;;2.80;;
19863;SDS011;10094;48.820;9.226;2023-05-15T12:44:34;2.85;;;2.65;;
19863;SDS011;10094;48.820;9.226;2023-05-15T12:51:17;2.80;;;2.33;;
19863;SDS011;10094;48.820;9.226;2023-05-15T12:58:03;2.97;;;2.22;;
19863;SDS011;10094;48.820;9.226;2023-05-15T13:04:47;2.92;;;2.40;;
19863;SDS011;10094;48.820;9.226;2023-05-15T13:11:30;4.70;;;2.80;;
19863;SDS011;10094;48.820;9.226;2023-05-15T13:18:16;3.30;;;3.00;;
19863;SDS011;10094;48.820;9.226;2023-05-15T13:24:59;3.20;;;2.92;;
19863;SDS011;10094;48.820;9.226;2023-05-15T13:31:41;4.10;;;3.17;;
19863;SDS011;10094;48.820;9.226;2023-05-15T13:38:24;6.03;;;3.67;;
19863;SDS011;10094;48.820;9.226;2023-05-15T13:45:13;3.78;;;3.30;;
19863;SDS011;10094;48.820;9.226;2023-05-15T13:51:56;3.63;;;3.20;;
19863;SDS011;10094;48.820;9.226;2023-05-15T13:58:39;3.08;;;2.80;;
19863;SDS011;10094;48.820;9.226;2023-05-15T14:05:22;3.00;;;2.60;;
19863;SDS011;10094;48.820;9.226;2023-05-15T14:12:04;3.60;;;2.83;;
19863;SDS011;10094;48.820;9.226;2023-05-15T14:18:47;6.60;;;3.33;;
19863;SDS011;10094;48.820;9.226;2023-05-15T14:25:29;4.47;;;3.25;;
19863;SDS011;10094;48.820;9.226;2023-05-15T14:32:11;3.00;;;2.80;;
19863;SDS011;10094;48.820;9.226;2023-05-15T14:38:54;3.33;;;3.03;;
19863;SDS011;10094;48.820;9.226;2023-05-15T14:45:38;5.00;;;3.35;;
19863;SDS011;10094;48.820;9.226;2023-05-15T14:52:20;3.58;;;3.28;;
19863;SDS011;10094;48.820;9.226;2023-05-15T14:59:03;10.15;;;5.18;;
19863;SDS011;10094;48.820;9.226;2023-05-15T15:05:45;6.03;;;4.20;;
19863;SDS011;10094;48.820;9.226;2023-05-15T15:12:27;5.05;;;2.47;;
19863;SDS011;10094;48.820;9.226;2023-05-15T15:19:09;2.85;;;2.50;;
19863;SDS011;10094;48.820;9.226;2023-05-15T15:25:52;4.80;;;3.47;;
19863;SDS011;10094;48.820;9.226;2023-05-15T15:32:36;4.80;;;3.70;;
19863;SDS011;10094;48.820;9.226;2023-05-15T15:39:19;4.10;;;3.63;;
19863;SDS011;10094;48.820;9.226;2023-05-15T15:46:02;6.68;;;4.90;;
19863;SDS011;10094;48.820;9.226;2023-05-15T15:52:45;6.72;;;5.43;;
19863;SDS011;10094;48.820;9.226;2023-05-15T15:59:27;6.68;;;5.97;;
19863;SDS011;10094;48.820;9.226;2023-05-15T16:06:09;6.68;;;5.72;;
19863;SDS011;10094;48.820;9.226;2023-05-15T16:12:52;6.53;;;5.82;;
19863;SDS011;10094;48.820;9.226;2023-05-15T16:19:34;6.22;;;5.63;;
19863;SDS011;10094;48.820;9.226;2023-05-15T16:26:17;9.38;;;6.50;;
19863;SDS011;10094;48.820;9.226;2023-05-15T16:33:01;6.25;;;5.47;;
19863;SDS011;10094;48.820;9.226;2023-05-15T16:39:44;5.75;;;5.18;;
19863;SDS011;10094;48.820;9.226;2023-05-15T16:46:26;8.50;;;5.13;;
19863;SDS011;10094;48.820;9.226;2023-05-15T16:53:08;5.45;;;4.57;;
19863;SDS011;10094;48.820;9.226;2023-05-15T16:59:51;5.72;;;4.43;;
19863;SDS011;10094;48.820;9.226;2023-05-15T17:06:34;4.68;;;4.18;;
19863;SDS011;10094;48.820;9.226;2023-05-15T17:13:16;4.18;;;3.17;;
19863;SDS011;10094;48.820;9.226;2023-05-15T17:19:58;3.30;;;3.00;;
19863;SDS011;10094;48.820;9.226;2023-05-15T17:26:43;7.50;;;3.42;;
19863;SDS011;10094;48.820;9.226;2023-05-15T17:33:26;3.42;;;2.88;;
19863;SDS011;10094;48.820;9.226;2023-05-15T17:40:08;3.22;;;2.63;;
19863;SDS011;10094;48.820;9.226;2023-05-15T17:46:51;5.40;;;3.00;;
19863;SDS011;10094;48.820;9.226;2023-05-15T17:53:33;5.53;;;3.58;;
19863;SDS011;10094;48.820;9.226;2023-05-15T18:00:15;4.15;;;3.53;;
19863;SDS011;10094;48.820;9.226;2023-05-15T18:06:58;3.85;;;3.40;;
19863;SDS011;10094;48.820;9.226;2023-05-15T18:13:40;4.18;;;3.78;;
19863;SDS011;10094;48.820;9.226;2023-05-15T18:20:23;4.97;;;3.78;;
19863;SDS011;10094;48.820;9.226;2023-05-15T18:27:06;4.47;;;3.88;;
19863;SDS011;10094;48.820;9.226;2023-05-15T18:33:48;4.95;;;4.45;;
19863;SDS011;10094;48.820;9.226;2023-05-15T18:40:31;5.63;;;4.50;;
19863;SDS011;10094;48.820;9.226;2023-05-15T18:47:13;6.65;;;5.10;;
19863;SDS011;10094;48.820;9.226;2023-05-15T18:53:56;6.13;;;4.97;;
19863;SDS011;10094;48.820;9.226;2023-05-15T19:00:38;6.40;;;5.45;;
19863;SDS011;10094;48.820;9.226;2023-05-15T19:07:20;6.22;;;5.47;;
19863;SDS011;10094;48.820;9.226;2023-05-15T19:14:03;5.90;;;5.30;;
19863;SDS011;10094;48.820;9.226;2023-05-15T19:20:46;5.10;;;4.60;;
19863;SDS011;10094;48.820;9.226;2023-05-15T19:27:32;5.78;;;5.28;;
19863;SDS011;10094;48.820;9.226;2023-05-15T19:34:15;7.35;;;5.55;;
19863;SDS011;10094;48.820;9.226;2023-05-15T19:40:57;10.63;;;6.25;;
19863;SDS011;10094;48.820;9.226;2023-05-15T19:47:40;7.47;;;5.60;;
19863;SDS011;10094;48.820;9.226;2023-05-15T19:54:23;5.70;;;5.20;;
19863;SDS011;10094;48.820;9.226;2023-05-15T20:01:06;6.30;;;5.30;;
19863;SDS011;10094;48.820;9.226;2023-05-15T20:07:48;6.85;;;5.75;;
19863;SDS011;10094;48.820;9.226;2023-05-15T20:14:30;7.30;;;5.78;;
19863;SDS011;10094;48.820;9.226;2023-05-15T20:21:15;7.32;;;6.35;;
19863;SDS011;10094;48.820;9.226;2023-05-15T20:27:57;10.13;;;6.35;;
19863;SDS011;10094;48.820;9.226;2023-05-15T20:34:41;6.40;;;5.80;;
19863;SDS011;10094;48.820;9.226;2023-05-15T20:41:26;7.03;;;6.32;;
19863;SDS011;10094;48.820;9.226;2023-05-15T20:48:08;7.05;;;6.35;;
19863;SDS011;10094;48.820;9.226;2023-05-15T20:54:52;10.45;;;6.85;;
19863;SDS011;10094;48.820;9.226;2023-05-15T21:01:34;9.73;;;7.53;;
19863;SDS011;10094;48.820;9.226;2023-05-15T21:08:17;7.28;;;6.60;;
19863;SDS011;10094;48.820;9.226;2023-05-15T21:15:00;9.27;;;7.10;;
19863;SDS011;10094;48.820;9.226;2023-05-15T21:21:43;7.97;;;7.20;;
19863;SDS011;10094;48.820;9.226;2023-05-15T21:28:25;8.50;;;7.65;;
19863;SDS011;10094;48.820;9.226;2023-05-15T21:35:08;8.55;;;7.55;;
19863;SDS011;10094;48.820;9.226;2023-05-15T21:41:50;12.80;;;7.90;;
19863;SDS011;10094;48.820;9.226;2023-05-15T21:57:19;7.95;;;7.10;;
19863;SDS011;10094;48.820;9.226;2023-05-15T22:04:02;8.80;;;7.93;;
19863;SDS011;10094;48.820;9.226;2023-05-15T22:10:44;8.18;;;7.15;;
19863;SDS011;10094;48.820;9.226;2023-05-15T22:17:27;10.63;;;7.82;;
19863;SDS011;10094;48.820;9.226;2023-05-15T22:24:11;8.88;;;7.80;;
19863;SDS011;10094;48.820;9.226;2023-05-15T22:30:54;9.13;;;8.20;;
19863;SDS011;10094;48.820;9.226;2023-05-15T22:37:36;9.40;;;8.45;;
19863;SDS011;10094;48.820;9.226;2023-05-15T22:44:19;9.85;;;8.75;;
19863;SDS011;10094;48.820;9.226;2023-05-15T22:51:01;11.48;;;10.18;;
19863;SDS011;10094;48.820;9.226;2023-05-15T22:57:43;13.80;;;10.30;;
19863;SDS011;10094;48.820;9.226;2023-05-15T23:04:26;10.00;;;9.00;;
19863;SDS011;10094;48.820;9.226;2023-05-15T23:11:08;15.93;;;11.10;;
19863;SDS011;10094;48.820;9.226;2023-05-15T23:17:51;13.23;;;9.95;;
19863;SDS011;10094;48.820;9.226;2023-05-15T23:24:33;15.40;;;10.57;;
19863;SDS011;10094;48.820;9.226;2023-05-15T23:31:15;12.30;;;11.18;;
19863;SDS011;10094;48.820;9.226;2023-05-15T23:37:58;12.40;;;10.43;;
19863;SDS011;10094;48.820;9.226;2023-05-15T23:44:40;12.88;;;10.35;;
19863;SDS011;10094;48.820;9.226;2023-05-15T23:51:22;11.98;;;10.88;;
19863;SDS011;10094;48.820;9.226;2023-05-15T23:58:05;11.23;;;10.10;;
